createdAt,value
2022-12-28T00:02:18.971Z,100708.31
2022-12-28T00:04:46.433Z,100699.47
2022-12-28T00:07:13.849Z,100608.88
2022-12-28T00:09:41.242Z,100677.53
2022-12-28T00:12:09.967Z,100675.94
2022-12-28T00:14:37.334Z,100678.47
2022-12-28T00:17:04.717Z,100668.81
2022-12-28T00:19:32.108Z,100667.97
2022-12-28T00:21:59.495Z,100622.31
2022-12-28T00:24:26.907Z,100668.03
2022-12-28T00:26:56.713Z,100655.66
2022-12-28T00:29:25.448Z,100654.81
2022-12-28T00:31:52.891Z,100648.66
2022-12-28T00:34:20.339Z,100651.31
2022-12-28T00:37:09.268Z,100632.88
2022-12-28T00:39:38.542Z,100637.22
2022-12-28T00:42:05.993Z,100628.47
2022-12-28T00:44:34.710Z,100617.97
2022-12-28T00:47:02.092Z,100619.75
2022-12-28T00:49:29.462Z,100612.69
2022-12-28T00:51:56.944Z,100607.41
2022-12-28T00:54:24.361Z,100593.34
2022-12-28T00:56:51.826Z,100475.53
2022-12-28T00:59:19.288Z,100588.13
2022-12-28T01:01:48.142Z,100433.88
2022-12-28T01:04:15.681Z,100572.28
2022-12-28T01:06:43.131Z,100433.00
2022-12-28T01:09:10.605Z,100551.56
2022-12-28T01:11:38.050Z,100567.00
2022-12-28T01:14:05.439Z,100539.72
2022-12-28T01:16:33.831Z,100567.91
2022-12-28T01:19:04.163Z,100560.06
2022-12-28T01:21:32.407Z,100558.75
2022-12-28T01:24:01.029Z,100530.69
2022-12-28T01:26:28.695Z,100261.13
2022-12-28T01:28:56.230Z,100546.06
2022-12-28T01:31:23.768Z,100522.78
2022-12-28T01:33:51.301Z,100539.06
2022-12-28T01:36:20.952Z,100532.91
2022-12-28T01:38:48.492Z,100527.63
2022-12-28T01:41:17.237Z,100539.59
2022-12-28T01:43:46.436Z,100522.34
2022-12-28T01:46:15.136Z,100522.34
2022-12-28T01:48:46.068Z,100512.72
2022-12-28T01:51:13.504Z,100432.72
2022-12-28T01:53:42.295Z,100512.72
2022-12-28T01:56:09.687Z,100248.75
2022-12-28T01:58:37.137Z,100481.53
2022-12-28T02:01:04.598Z,100220.16
2022-12-28T02:03:32.298Z,100497.78
2022-12-28T02:06:01.042Z,100386.59
2022-12-28T02:08:30.475Z,100350.53
2022-12-28T02:10:59.248Z,100379.50
2022-12-28T02:13:26.671Z,100472.31
2022-12-28T02:15:54.107Z,100505.75
2022-12-28T02:18:21.797Z,100467.03
2022-12-28T02:21:02.824Z,100465.25
2022-12-28T02:23:44.891Z,100231.69
2022-12-28T02:26:34.914Z,100416.81
2022-12-28T02:29:21.650Z,100415.97
2022-12-28T02:31:52.530Z,100460.94
2022-12-28T02:34:23.038Z,100359.84
2022-12-28T02:36:53.471Z,100364.22
2022-12-28T02:39:23.398Z,100166.59
2022-12-28T02:41:50.813Z,100224.22
2022-12-28T02:44:38.254Z,100189.78
2022-12-28T02:47:27.977Z,100430.06
2022-12-28T02:50:07.681Z,100417.81
2022-12-28T02:53:06.759Z,100241.75
2022-12-28T02:56:09.417Z,100296.47
2022-12-28T02:58:48.565Z,100367.88
2022-12-28T03:01:20.796Z,100346.78
2022-12-28T03:03:57.094Z,100332.06
2022-12-28T03:06:44.219Z,100176.69
2022-12-28T03:09:14.120Z,100280.78
2022-12-28T03:11:43.734Z,100356.28
2022-12-28T03:14:13.454Z,100369.50
2022-12-28T03:16:56.213Z,100176.94
2022-12-28T03:19:45.725Z,100291.13
2022-12-28T03:22:31.266Z,100339.50
2022-12-28T03:25:16.699Z,100249.50
2022-12-28T03:28:01.458Z,100327.78
2022-12-28T03:30:46.988Z,100287.91
2022-12-28T03:33:14.434Z,100339.50
2022-12-28T03:35:44.233Z,100245.66
2022-12-28T03:38:12.160Z,100321.91
2022-12-28T03:40:43.284Z,100350.94
2022-12-28T03:43:29.702Z,100028.03
2022-12-28T03:45:58.290Z,100271.41
2022-12-28T03:48:25.737Z,100284.09
2022-12-28T03:50:54.562Z,100279.66
2022-12-28T03:53:24.135Z,100289.38
2022-12-28T03:55:51.600Z,100193.81
2022-12-28T03:58:19.160Z,100262.13
2022-12-28T04:00:46.568Z,99922.69
2022-12-28T04:03:14.452Z,100111.66
2022-12-28T04:05:41.926Z,100231.69
2022-12-28T04:08:10.691Z,100131.09
2022-12-28T04:10:38.145Z,100237.44
2022-12-28T04:13:05.591Z,100111.22
2022-12-28T04:15:33.128Z,100226.81
2022-12-28T04:18:01.071Z,99987.00
2022-12-28T04:20:28.471Z,100218.03
2022-12-28T04:22:55.896Z,100223.38
2022-12-28T04:25:24.641Z,99961.38
2022-12-28T04:27:52.329Z,100211.03
2022-12-28T04:30:19.739Z,100217.19
2022-12-28T04:32:47.188Z,100114.03
2022-12-28T04:35:14.593Z,100184.25
2022-12-28T04:37:42.077Z,100171.13
2022-12-28T04:40:10.583Z,100137.75
2022-12-28T04:42:39.338Z,99953.69
2022-12-28T04:45:07.716Z,100174.63
2022-12-28T04:47:35.109Z,100173.22
2022-12-28T04:50:02.527Z,100174.09
2022-12-28T04:52:29.932Z,100173.22
2022-12-28T04:54:57.363Z,100013.53
2022-12-28T04:57:24.822Z,100151.25
2022-12-28T04:59:53.593Z,99999.78
2022-12-28T05:02:21.131Z,100005.81
2022-12-28T05:04:48.607Z,100098.97
2022-12-28T05:07:16.097Z,100140.72
2022-12-28T05:09:43.510Z,100132.78
2022-12-28T05:12:10.951Z,100135.44
2022-12-28T05:14:38.344Z,100130.22
2022-12-28T05:17:07.074Z,99899.88
2022-12-28T05:19:34.466Z,99885.22
2022-12-28T05:22:01.913Z,100134.34
2022-12-28T05:24:29.309Z,100135.16
2022-12-28T05:26:56.797Z,99969.72
2022-12-28T05:29:24.210Z,100134.88
2022-12-28T05:31:51.683Z,100136.56
2022-12-28T05:34:20.503Z,100119.53
2022-12-28T05:36:47.919Z,100055.88
2022-12-28T05:39:15.362Z,100133.78
2022-12-28T05:41:42.803Z,100025.66
2022-12-28T05:44:10.176Z,99903.19
2022-12-28T05:46:37.690Z,100103.31
2022-12-28T05:49:05.177Z,99891.91
2022-12-28T05:51:33.892Z,99814.53
2022-12-28T05:54:04.206Z,100114.00
2022-12-28T05:56:32.342Z,100106.09
2022-12-28T06:01:21.015Z,100025.78
2022-12-28T06:03:49.014Z,100092.75
2022-12-28T06:06:17.603Z,99973.06
2022-12-28T06:08:46.862Z,100015.41
2022-12-28T06:11:15.433Z,100083.69
2022-12-28T06:13:42.966Z,100016.16
2022-12-28T06:16:12.080Z,100097.50
2022-12-28T06:18:39.536Z,100082.47
2022-12-28T06:21:07.867Z,99863.38
2022-12-28T06:23:35.702Z,99810.03
2022-12-28T06:26:05.763Z,100077.75
2022-12-28T06:28:33.272Z,99782.09
2022-12-28T06:31:04.318Z,100073.16
2022-12-28T06:33:31.748Z,100070.50
2022-12-28T06:35:59.187Z,99959.94
2022-12-28T06:38:26.973Z,100020.53
2022-12-28T06:41:12.704Z,99867.78
2022-12-28T06:43:43.113Z,100039.97
2022-12-28T06:46:10.619Z,100062.13
2022-12-28T06:48:38.319Z,99720.06
2022-12-28T06:51:07.446Z,100063.72
2022-12-28T06:53:35.843Z,100048.63
2022-12-28T06:56:03.962Z,100024.75
2022-12-28T06:58:31.601Z,100038.34
2022-12-28T07:01:07.819Z,100058.06
2022-12-28T07:03:35.256Z,100058.06
2022-12-28T07:06:02.698Z,100054.47
2022-12-28T07:08:30.180Z,100037.97
2022-12-28T07:11:03.034Z,100022.66
2022-12-28T07:13:30.455Z,100058.66
2022-12-28T07:15:57.835Z,100049.81
2022-12-28T07:18:26.538Z,100055.09
2022-12-28T07:20:59.677Z,100051.38
2022-12-28T07:23:30.009Z,100053.06
2022-12-28T07:25:57.842Z,100050.50
2022-12-28T07:28:25.507Z,100052.66
2022-12-28T07:30:52.890Z,100041.94
2022-12-28T07:33:20.296Z,100036.13
2022-12-28T07:35:48.994Z,100038.94
2022-12-28T07:38:21.102Z,100040.31
2022-12-28T07:40:48.964Z,100038.91
2022-12-28T07:43:16.358Z,100018.66
2022-12-28T07:45:43.780Z,100023.78
2022-12-28T07:48:11.203Z,100036.19
2022-12-28T07:50:38.693Z,100036.44
2022-12-28T07:53:07.526Z,100039.09
2022-12-28T07:55:35.095Z,100038.22
2022-12-28T07:58:02.487Z,100038.38
2022-12-28T08:00:29.864Z,100042.88
2022-12-28T08:02:57.511Z,100035.28
2022-12-28T08:05:24.916Z,100044.72
2022-12-28T08:07:52.354Z,100045.53
2022-12-28T08:10:21.032Z,100042.88
2022-12-28T08:12:48.418Z,100040.25
2022-12-28T08:15:15.942Z,100047.34
2022-12-28T08:17:43.306Z,100035.13
2022-12-28T08:20:11.404Z,100039.41
2022-12-28T08:22:38.783Z,100042.97
2022-12-28T08:25:06.840Z,100050.84
2022-12-28T08:27:38.581Z,100043.75
2022-12-28T08:30:07.181Z,100032.97
2022-12-28T08:32:34.559Z,100047.34
2022-12-28T08:35:01.960Z,100042.06
2022-12-28T08:37:29.342Z,100036.84
2022-12-28T08:39:56.725Z,100015.31
2022-12-28T08:42:24.114Z,100052.47
2022-12-28T08:44:52.850Z,100041.81
2022-12-28T08:47:20.252Z,100043.50
2022-12-28T08:49:48.647Z,100042.56
2022-12-28T08:52:16.060Z,100021.38
2022-12-28T08:54:43.443Z,100051.38
2022-12-28T08:57:10.823Z,100046.00
2022-12-28T08:59:38.282Z,100048.63
2022-12-28T09:02:07.101Z,100049.41
2022-12-28T09:04:34.578Z,100052.81
2022-12-28T09:07:01.995Z,100054.56
2022-12-28T09:09:29.383Z,100038.22
2022-12-28T09:11:56.759Z,100056.94
2022-12-28T09:14:24.815Z,100049.84
2022-12-28T09:16:52.591Z,100021.63
2022-12-28T09:19:21.515Z,100015.94
2022-12-28T09:21:52.231Z,100029.94
2022-12-28T09:24:19.686Z,100042.50
2022-12-28T09:26:47.114Z,100050.47
2022-12-28T09:29:14.728Z,100060.19
2022-12-28T09:31:43.940Z,100035.94
2022-12-28T09:37:01.792Z,100033.88
2022-12-28T09:39:29.369Z,100058.06
2022-12-28T09:41:58.354Z,100032.97
2022-12-28T09:44:37.811Z,100052.44
2022-12-28T09:47:12.261Z,100024.31
2022-12-28T09:49:43.022Z,100026.47
2022-12-28T09:52:25.148Z,100021.09
2022-12-28T09:54:52.576Z,100042.63
2022-12-28T09:57:20.269Z,100027.00
2022-12-28T09:59:47.785Z,100037.09
2022-12-28T10:02:18.180Z,100034.34
2022-12-28T10:04:49.247Z,100039.56
2022-12-28T10:07:18.235Z,100027.66
2022-12-28T10:09:45.684Z,100029.97
2022-12-28T10:12:14.636Z,100035.88
2022-12-28T10:14:42.741Z,100030.59
2022-12-28T10:17:10.283Z,100029.63
2022-12-28T10:19:37.686Z,100033.84
2022-12-28T10:22:06.416Z,100034.31
2022-12-28T10:24:35.181Z,99991.97
2022-12-28T10:27:03.470Z,100031.00
2022-12-28T10:29:32.239Z,100023.59
2022-12-28T10:32:01.283Z,99991.50
2022-12-28T10:34:33.525Z,100017.56
2022-12-28T10:37:05.332Z,100011.22
2022-12-28T10:39:32.714Z,99976.81
2022-12-28T10:42:02.360Z,100006.97
2022-12-28T10:44:39.390Z,99999.28
2022-12-28T10:47:08.183Z,99998.78
2022-12-28T10:49:37.176Z,99973.41
2022-12-28T10:52:07.501Z,99971.28
2022-12-28T10:54:36.049Z,99998.63
2022-12-28T10:57:04.876Z,99962.56
2022-12-28T10:59:32.606Z,99960.84
2022-12-28T11:02:23.444Z,99974.19
2022-12-28T11:04:55.845Z,99983.00
2022-12-28T11:07:31.320Z,99971.69
2022-12-28T11:10:23.430Z,99977.75
2022-12-28T11:12:52.426Z,99972.63
2022-12-28T11:15:20.681Z,99931.00
2022-12-28T11:17:51.055Z,99965.81
2022-12-28T11:20:19.638Z,99958.81
2022-12-28T11:22:47.295Z,99957.00
2022-12-28T11:25:15.983Z,99956.91
2022-12-28T11:27:43.396Z,99948.22
2022-12-28T11:30:17.723Z,99944.59
2022-12-28T11:32:48.951Z,99950.00
2022-12-28T11:35:17.483Z,99949.91
2022-12-28T11:37:50.143Z,99941.88
2022-12-28T11:40:46.302Z,99936.56
2022-12-28T11:43:40.106Z,99939.31
2022-12-28T11:46:09.530Z,99939.31
2022-12-28T11:48:47.235Z,99932.31
2022-12-28T11:51:17.878Z,99935.88
2022-12-28T11:53:53.519Z,99926.25
2022-12-28T11:56:21.155Z,99893.91
2022-12-28T11:59:02.000Z,99922.06
2022-12-28T12:01:55.275Z,99923.88
2022-12-28T12:04:32.617Z,99914.31
2022-12-28T12:07:32.147Z,99906.53
2022-12-28T12:10:35.595Z,99905.84
2022-12-28T12:13:25.077Z,99909.53
2022-12-28T12:15:52.928Z,99907.91
2022-12-28T12:18:22.831Z,99873.88
2022-12-28T12:20:53.839Z,99905.59
2022-12-28T12:23:33.634Z,99905.69
2022-12-28T12:26:14.799Z,99901.53
2022-12-28T12:28:44.426Z,99899.84
2022-12-28T12:31:13.353Z,99891.97
2022-12-28T12:33:43.633Z,99871.59
2022-12-28T12:36:21.862Z,99887.78
2022-12-28T12:39:10.064Z,99873.53
2022-12-28T12:41:38.734Z,99888.03
2022-12-28T12:44:17.153Z,99863.22
2022-12-28T12:47:18.093Z,99883.88
2022-12-28T12:50:13.759Z,99878.75
2022-12-28T12:52:42.791Z,99848.13
2022-12-28T12:55:19.383Z,99872.94
2022-12-28T12:57:52.049Z,99841.22
2022-12-28T13:00:19.801Z,99860.13
2022-12-28T13:03:16.091Z,99867.91
2022-12-28T13:05:47.275Z,99859.31
2022-12-28T13:08:20.185Z,99867.34
2022-12-28T13:10:47.576Z,99849.06
2022-12-28T13:13:19.845Z,99851.63
2022-12-28T13:15:47.291Z,99849.31
2022-12-28T13:21:12.375Z,99850.25
2022-12-28T13:23:43.610Z,99845.13
2022-12-28T13:26:11.035Z,99823.13
2022-12-28T13:28:38.444Z,99807.59
2022-12-28T13:31:10.769Z,99790.38
2022-12-28T13:33:38.282Z,99841.91
2022-12-28T13:36:18.078Z,99834.06
2022-12-28T13:38:45.524Z,99830.72
2022-12-28T13:41:21.986Z,99836.09
2022-12-28T13:44:26.882Z,99833.44
2022-12-28T13:46:57.578Z,99821.34
2022-12-28T13:49:24.961Z,99822.34
2022-12-28T13:51:53.910Z,99819.69
2022-12-28T13:54:22.615Z,99826.03
2022-12-28T13:56:50.032Z,99805.28
2022-12-28T13:59:18.170Z,99827.22
2022-12-28T14:01:47.012Z,99787.59
2022-12-28T14:07:04.322Z,99829.09
2022-12-28T14:09:31.711Z,99842.31
2022-12-28T14:11:59.086Z,99807.06
2022-12-28T14:14:26.459Z,99827.66
2022-12-28T14:16:53.843Z,99825.91
2022-12-28T14:19:21.240Z,99828.78
2022-12-28T14:21:48.628Z,99826.13
2022-12-28T14:24:17.329Z,99813.72
2022-12-28T14:26:49.194Z,99837.75
2022-12-28T14:29:20.089Z,99831.69
2022-12-28T14:31:47.494Z,99843.19
2022-12-28T14:34:22.289Z,99837.06
2022-12-28T14:36:50.444Z,99806.53
2022-12-28T14:39:29.775Z,99801.16
2022-12-28T14:41:57.181Z,99832.88
2022-12-28T14:44:28.265Z,99834.78
2022-12-28T14:46:55.969Z,99803.72
2022-12-28T14:49:35.752Z,99793.72
2022-12-28T14:52:36.143Z,99822.47
2022-12-28T14:55:22.341Z,99797.28
2022-12-28T14:57:50.203Z,99831.50
2022-12-28T15:00:25.756Z,99840.31
2022-12-28T15:02:53.365Z,99824.63
2022-12-28T15:05:40.973Z,99830.72
2022-12-28T15:08:08.483Z,99786.28
2022-12-28T15:10:41.004Z,99822.13
2022-12-28T15:13:08.397Z,99816.94
2022-12-28T15:15:35.916Z,99785.28
2022-12-28T15:18:03.530Z,99793.66
2022-12-28T15:20:31.095Z,99806.53
2022-12-28T15:22:58.485Z,99767.09
2022-12-28T15:25:25.891Z,99795.09
2022-12-28T15:27:54.583Z,99778.47
2022-12-28T15:30:28.759Z,99758.50
2022-12-28T15:32:56.623Z,99768.91
2022-12-28T15:35:24.024Z,99733.09
2022-12-28T15:37:51.395Z,99744.44
2022-12-28T15:40:18.822Z,99738.25
2022-12-28T15:42:46.283Z,99731.31
2022-12-28T15:45:15.892Z,99732.34
2022-12-28T15:47:43.644Z,99737.53
2022-12-28T15:50:11.137Z,99692.53
2022-12-28T15:52:38.664Z,99717.16
2022-12-28T15:55:06.822Z,99740.34
2022-12-28T15:57:34.227Z,99736.94
2022-12-28T16:00:01.690Z,99725.78
2022-12-28T16:02:30.611Z,99729.16
2022-12-28T16:04:58.187Z,99716.22
2022-12-28T16:07:25.621Z,99725.78
2022-12-28T16:09:53.001Z,99717.00
2022-12-28T16:12:20.397Z,99721.50
2022-12-28T16:14:47.862Z,99731.97
2022-12-28T16:17:15.421Z,99735.56
2022-12-28T16:19:44.151Z,99731.22
2022-12-28T16:22:11.633Z,99727.72
2022-12-28T16:24:39.114Z,99722.59
2022-12-28T16:27:06.586Z,99678.97
2022-12-28T16:29:33.953Z,99713.06
2022-12-28T16:32:01.595Z,99675.28
2022-12-28T16:34:29.083Z,99707.88
2022-12-28T16:36:59.288Z,99711.44
2022-12-28T16:39:26.812Z,99712.47
2022-12-28T16:41:54.320Z,99691.81
2022-12-28T16:44:22.489Z,99696.69
2022-12-28T16:46:49.987Z,99671.53
2022-12-28T16:49:17.448Z,99699.41
2022-12-28T16:51:45.672Z,99651.53
2022-12-28T16:54:16.543Z,99660.03
2022-12-28T16:56:44.436Z,99682.88
2022-12-28T16:59:14.115Z,99681.19
2022-12-28T17:01:41.981Z,99675.19
2022-12-28T17:04:09.741Z,99676.84
2022-12-28T17:06:37.149Z,99674.28
2022-12-28T17:09:04.938Z,99621.94
2022-12-28T17:11:33.631Z,99633.63
2022-12-28T17:14:02.487Z,99640.72
2022-12-28T17:16:30.061Z,99620.75
2022-12-28T17:18:57.498Z,99644.63
2022-12-28T17:21:24.895Z,99642.00
2022-12-28T17:23:52.277Z,99636.88
2022-12-28T17:26:19.648Z,99635.19
2022-12-28T17:28:48.356Z,99640.47
2022-12-28T17:31:17.140Z,99635.19
2022-12-28T17:33:45.656Z,99629.03
2022-12-28T17:36:13.100Z,99622.06
2022-12-28T17:38:40.483Z,99616.88
2022-12-28T17:41:09.165Z,99614.22
2022-12-28T17:43:36.809Z,99615.13
2022-12-28T17:46:05.903Z,99591.97
2022-12-28T17:48:33.355Z,99601.13
2022-12-28T17:51:00.746Z,99601.19
2022-12-28T17:53:28.160Z,99602.03
2022-12-28T17:55:55.528Z,99594.19
2022-12-28T17:58:22.917Z,99587.22
2022-12-28T18:00:54.810Z,99594.28
2022-12-28T18:03:27.261Z,99577.59
2022-12-28T18:05:59.013Z,99565.31
2022-12-28T18:08:26.413Z,99571.47
2022-12-28T18:10:53.820Z,99543.19
2022-12-28T18:13:21.208Z,99567.97
2022-12-28T18:15:48.843Z,99555.72
2022-12-28T18:18:16.851Z,99552.38
2022-12-28T18:20:45.706Z,99550.50
2022-12-28T18:23:13.109Z,99546.09
2022-12-28T18:25:40.512Z,99545.25
2022-12-28T18:28:08.098Z,99537.41
2022-12-28T18:30:35.535Z,99533.06
2022-12-28T18:33:02.953Z,99526.06
2022-12-28T18:35:30.386Z,99522.59
2022-12-28T18:37:59.771Z,99508.63
2022-12-28T18:40:27.168Z,99466.66
2022-12-28T18:42:54.611Z,99503.25
2022-12-28T18:45:22.017Z,99498.94
2022-12-28T18:47:49.401Z,99499.00
2022-12-28T18:50:16.938Z,99503.34
2022-12-28T18:52:45.480Z,99491.19
2022-12-28T18:55:14.172Z,99487.59
2022-12-28T18:57:41.555Z,99492.00
2022-12-28T19:00:10.667Z,99485.03
2022-12-28T19:02:38.379Z,99481.78
2022-12-28T19:05:05.884Z,99487.84
2022-12-28T19:07:33.288Z,99481.72
2022-12-28T19:10:13.798Z,99487.94
2022-12-28T19:12:42.867Z,99495.84
2022-12-28T19:15:11.266Z,99485.28
2022-12-28T19:17:38.702Z,99494.16
2022-12-28T19:20:07.197Z,99489.78
2022-12-28T19:22:34.583Z,99484.53
2022-12-28T19:25:02.099Z,99477.56
2022-12-28T19:27:29.528Z,99473.22
2022-12-28T19:29:58.243Z,99475.84
2022-12-28T19:32:25.638Z,99467.94
2022-12-28T19:34:53.501Z,99477.63
2022-12-28T19:37:21.486Z,99466.22
2022-12-28T19:39:53.384Z,99457.56
2022-12-28T19:42:23.653Z,99453.19
2022-12-28T19:44:51.040Z,99454.16
2022-12-28T19:47:19.733Z,99446.16
2022-12-28T19:49:47.137Z,99435.66
2022-12-28T19:52:14.508Z,99435.66
2022-12-28T19:54:42.345Z,99433.13
2022-12-28T19:57:09.749Z,99427.94
2022-12-28T19:59:37.153Z,99428.88
2022-12-28T20:02:04.602Z,99426.25
2022-12-28T20:04:33.485Z,99424.44
2022-12-28T20:07:00.897Z,99424.50
2022-12-28T20:09:28.298Z,99417.47
2022-12-28T20:11:55.743Z,99411.31
2022-12-28T20:14:25.128Z,99407.00
2022-12-28T20:16:52.906Z,99395.59
2022-12-28T20:19:20.297Z,99382.56
2022-12-28T20:21:50.197Z,99385.88
2022-12-28T20:24:19.818Z,99381.56
2022-12-28T20:26:47.259Z,99365.13
2022-12-28T20:29:16.239Z,99333.72
2022-12-28T20:31:43.768Z,99368.47
2022-12-28T20:34:11.187Z,99340.28
2022-12-28T20:36:38.556Z,99347.94
2022-12-28T20:39:07.262Z,99260.97
2022-12-28T20:41:52.230Z,99340.28
2022-12-28T20:44:22.189Z,99343.75
2022-12-28T20:46:49.634Z,99360.81
2022-12-28T20:49:17.026Z,99341.47
2022-12-28T20:51:47.643Z,99347.63
2022-12-28T20:54:16.336Z,99344.13
2022-12-28T20:56:45.026Z,99326.69
2022-12-28T20:59:15.473Z,99335.34
2022-12-28T21:01:43.151Z,99315.75
2022-12-28T21:04:10.751Z,99316.97
2022-12-28T21:06:38.135Z,99327.50
2022-12-28T21:09:05.532Z,99324.97
2022-12-28T21:11:34.228Z,99316.19
2022-12-28T21:14:01.631Z,99311.78
2022-12-28T21:16:29.065Z,99310.84
2022-12-28T21:18:56.492Z,99314.47
2022-12-28T21:21:23.884Z,99309.19
2022-12-28T21:23:52.401Z,99309.28
2022-12-28T21:26:20.047Z,99268.31
2022-12-28T21:28:48.744Z,99299.69
2022-12-28T21:31:16.259Z,99301.44
2022-12-28T21:33:43.748Z,99291.75
2022-12-28T21:36:13.696Z,99274.94
2022-12-28T21:38:41.215Z,99282.16
2022-12-28T21:41:09.967Z,99284.88
2022-12-28T21:43:37.468Z,99238.84
2022-12-28T21:46:07.569Z,99276.13
2022-12-28T21:48:35.065Z,99272.72
2022-12-28T21:51:06.705Z,99277.97
2022-12-28T21:53:34.167Z,99265.75
2022-12-28T21:56:01.598Z,99276.28
2022-12-28T21:58:28.969Z,99275.44
2022-12-28T22:01:16.902Z,99278.16
2022-12-28T22:04:03.443Z,99288.72
2022-12-28T22:06:30.811Z,99228.72
2022-12-28T22:09:15.794Z,99260.81
2022-12-28T22:12:00.534Z,99261.59
2022-12-28T22:14:27.932Z,99256.31
2022-12-28T22:16:55.502Z,99250.09
2022-12-28T22:19:24.529Z,99255.38
2022-12-28T22:21:51.928Z,99251.03
2022-12-28T22:24:19.327Z,99209.50
2022-12-28T22:26:47.028Z,99245.09
2022-12-28T22:29:15.339Z,99246.78
2022-12-28T22:31:42.807Z,99236.03
2022-12-28T22:34:10.239Z,99235.31
2022-12-28T22:36:38.955Z,99237.09
2022-12-28T22:39:06.340Z,99225.84
2022-12-28T22:41:33.720Z,99231.81
2022-12-28T22:44:01.113Z,99228.41
2022-12-28T22:46:28.513Z,99224.00
2022-12-28T22:48:55.957Z,99231.03
2022-12-28T22:51:23.362Z,99219.66
2022-12-28T22:53:52.063Z,99225.78
2022-12-28T22:56:20.757Z,99225.78
2022-12-28T22:58:48.611Z,99217.13
2022-12-28T23:01:18.283Z,99197.56
2022-12-28T23:03:46.493Z,99188.91
2022-12-28T23:06:15.496Z,99218.81
2022-12-28T23:08:42.869Z,99207.41
2022-12-28T23:11:28.016Z,99179.97
2022-12-28T23:13:55.383Z,99200.44
2022-12-28T23:16:21.869Z,99207.50
2022-12-28T23:19:06.717Z,99184.28
2022-12-28T23:21:51.614Z,99204.94
2022-12-28T23:24:36.451Z,99181.75
2022-12-28T23:27:21.360Z,99172.31
2022-12-28T23:29:48.744Z,99148.53
2022-12-28T23:32:16.133Z,99191.75
2022-12-28T23:34:43.536Z,99193.56
2022-12-28T23:37:10.923Z,99183.94
2022-12-28T23:39:38.330Z,99184.22
2022-12-28T23:42:07.065Z,99187.53
2022-12-28T23:44:34.461Z,99170.84
2022-12-28T23:47:01.826Z,99164.75
2022-12-28T23:49:29.214Z,99166.44
2022-12-28T23:51:56.594Z,99163.88
2022-12-28T23:54:23.971Z,99153.34
2022-12-28T23:56:51.331Z,99155.97
2022-12-28T23:59:20.107Z,99145.69
